Latest Weather Observations for Canterbury

IDN60901

Issued at 9:05 pm EST Thursday 28 August 2014 (issued every 10 minutes, with the page automatically refreshed every 10 minutes)

About weather observations | Map of Sydney area stations | Latest observations for Sydney area | Other Formats
Station Details ID: 066194 Name: CANTERBURY RACECOURSE AWS Lat: -33.91 Lon: 151.11 Height: 3.0 m
Data from the previous 72 hours. | See also: Recent months at Canterbury
Date/Time
EST
Tmp

°C
App
Tmp
°C
Dew
Point
°C
Rel
Hum
%
Delta-T

°C
Wind Press
QNH
hPa
Press
MSL
hPa
Rain
since
9 am
mm
Dir
 
Spd
km/h
Gust
km/h
Spd
kts
Gust
kts
28/09:00pm 10.6 9.9 7.1 79 1.7 WSW 0 0 0 0 - - 3.6
28/08:30pm 11.4 9.5 6.7 73 2.2 WSW 6 9 3 5 - - 3.6
28/08:00pm 12.8 10.8 6.4 65 3.0 S 6 9 3 5 - - 3.6
28/07:30pm 13.8 11.3 6.7 62 3.4 SSE 9 11 5 6 - - 3.6
28/07:00pm 14.2 11.3 6.3 59 3.8 SSE 11 17 6 9 - - 3.6
28/06:30pm 14.4 11.7 7.5 63 3.4 SSE 11 15 6 8 - - 3.6
28/06:00pm 14.6 11.5 7.4 62 3.5 SSE 13 19 7 10 - - 3.6
28/05:30pm 15.1 11.3 7.4 60 3.8 SSE 17 24 9 13 - - 3.6
28/05:00pm 15.5 10.6 7.0 57 4.2 SSE 22 35 12 19 - - 3.6
28/04:30pm 15.9 11.3 8.2 60 3.9 SSE 22 35 12 19 - - 3.6
28/04:00pm 16.2 11.5 7.9 58 4.2 SSE 22 33 12 18 - - 3.6
28/03:30pm 16.7 12.2 8.7 59 4.1 SSE 22 35 12 19 - - 3.6
28/03:00pm 16.8 12.9 8.5 58 4.2 SSE 19 33 10 18 - - 3.6
28/02:30pm 16.7 11.1 8.7 59 4.1 SSE 28 39 15 21 - - 3.6
28/02:00pm 17.0 11.6 8.2 56 4.5 SSE 26 37 14 20 - - 3.6
28/01:30pm 17.2 12.0 8.9 58 4.3 SSE 26 39 14 21 - - 3.6
28/01:00pm 17.3 13.5 9.7 61 4.0 SSE 20 35 11 19 - - 3.6
28/12:30pm 17.2 12.4 10.3 64 3.7 SSE 26 37 14 20 - - 3.6
28/12:21pm 17.0 13.8 11.1 68 3.2 SSE 19 30 10 16 - - 3.6
28/12:01pm 15.7 11.9 11.1 74 2.5 S 22 35 12 19 - - 3.6
28/12:00pm 16.1 12.8 11.5 74 2.5 S 20 30 11 16 - - 3.6
28/11:30am 16.1 10.8 9.8 66 3.3 SSE 28 46 15 25 - - 3.4
28/11:00am 16.6 12.1 10.2 66 3.4 SE 24 35 13 19 - - 3.4
28/10:30am 15.4 13.2 12.0 80 1.8 S 15 22 8 12 - - 3.4
28/10:20am 15.1 14.0 13.0 87 1.2 S 11 17 6 9 - - 3.4
28/10:00am 14.3 11.6 11.8 85 1.3 S 17 24 9 13 - - 3.2
28/09:49am 15.3 12.0 11.7 79 1.9 S 20 32 11 17 - - 0.2
28/09:30am 16.0 12.1 12.0 77 2.2 S 24 30 13 16 - - 0.0
28/09:00am 15.1 13.7 12.1 82 1.6 SSW 11 17 6 9 - - 20.2
28/08:30am 14.2 12.5 12.4 89 1.0 SW 13 20 7 11 - - 20.2
28/08:08am 13.4 12.4 12.3 93 0.6 SSW 9 17 5 9 - - 20.2
28/08:00am 13.0 12.3 11.9 93 0.6 SSW 7 11 4 6 - - 20.2
28/07:30am 12.9 11.8 11.8 93 0.6 SSE 9 13 5 7 - - 19.2
28/07:24am 12.9 11.7 11.6 92 0.7 S 9 17 5 9 - - 17.4
28/07:00am 12.8 11.2 11.7 93 0.6 SW 11 19 6 10 - - 17.0
28/06:42am 12.6 11.0 11.5 93 0.6 SW 11 19 6 10 - - 17.0
28/06:30am 12.5 10.9 11.4 93 0.6 S 11 15 6 8 - - 17.0
28/06:07am 12.3 10.9 10.9 91 0.7 S 9 15 5 8 - - 15.4
28/06:06am 12.3 10.9 10.9 91 0.7 S 9 13 5 7 - - 15.2
28/06:00am 12.4 10.6 11.0 91 0.7 S 11 19 6 10 - - 15.2
28/05:54am 12.5 10.4 11.1 91 0.7 S 13 22 7 12 - - 15.0
28/05:38am 12.5 11.3 11.6 94 0.5 SW 9 15 5 8 - - 14.8
28/05:30am 12.5 11.3 11.6 94 0.5 SW 9 13 5 7 - - 14.8
28/05:00am 12.4 11.2 11.6 95 0.4 SW 9 15 5 8 - - 14.0
28/04:30am 12.4 11.5 11.5 94 0.5 SSE 7 11 4 6 - - 13.2
28/04:00am 12.9 9.5 11.3 90 0.8 ESE 20 28 11 15 - - 9.4
28/03:30am 11.5 10.0 10.6 94 0.5 WSW 9 11 5 6 - - 8.2
28/03:00am 11.2 10.2 10.3 94 0.5 WSW 6 7 3 4 - - 8.2
28/02:30am 10.9 10.1 9.8 93 0.6 WNW 4 7 2 4 - - 8.2
28/02:00am 10.8 10.7 9.6 92 0.6 CALM 0 7 0 4 - - 8.2
28/01:32am 10.8 9.0 9.6 92 0.6 W 9 13 5 7 - - 8.2
28/01:30am 10.8 9.0 9.6 92 0.6 W 9 13 5 7 - - 8.2
28/01:00am 11.2 10.7 9.5 89 0.9 SE 2 7 1 4 - - 7.8
28/12:53am 11.2 9.9 9.1 87 1.0 S 6 9 3 5 - - 6.4
28/12:30am 10.8 9.3 8.6 86 1.1 W 6 9 3 5 - - 6.2
28/12:00am 10.8 9.3 8.4 85 1.2 W 6 11 3 6 - - 6.2
 
Date/Time
EST
Tmp

°C
App
Tmp
°C
Dew
Point
°C
Rel
Hum
%
Delta-T

°C
Wind Press
QNH
hPa
Press
MSL
hPa
Rain
since
9 am
mm
Dir
 
Spd
km/h
Gust
km/h
Spd
kts
Gust
kts
27/11:30pm 11.0 9.3 8.4 84 1.3 W 7 11 4 6 - - 6.2
27/11:00pm 10.9 9.4 8.3 84 1.3 WSW 6 9 3 5 - - 6.2
27/10:30pm 11.5 10.0 8.5 82 1.5 SW 6 9 3 5 - - 6.2
27/10:00pm 11.8 9.4 8.6 81 1.6 WSW 11 17 6 9 - - 6.2
27/09:30pm 12.2 9.8 8.7 79 1.7 WSW 11 15 6 8 - - 6.2
27/09:00pm 13.0 10.9 8.1 72 2.4 WSW 9 11 5 6 - - 6.2
27/08:30pm 13.4 10.9 6.7 64 3.2 SW 9 13 5 7 - - 6.2
27/08:00pm 14.4 11.9 6.7 60 3.7 S 9 17 5 9 - - 6.2
27/07:30pm 15.0 11.1 7.3 60 3.8 SSE 17 24 9 13 - - 6.2
27/07:00pm 15.1 11.4 8.1 63 3.5 SSE 17 22 9 12 - - 6.2
27/06:30pm 15.6 10.9 7.9 60 3.9 SSE 22 35 12 19 - - 6.2
27/06:00pm 15.6 11.6 8.1 61 3.8 SSE 19 33 10 18 - - 6.2
27/05:30pm 15.8 11.8 9.0 64 3.5 SSE 20 32 11 17 - - 6.2
27/05:00pm 16.0 12.0 9.2 64 3.5 SSE 20 35 11 19 - - 6.2
27/04:30pm 16.2 11.5 9.2 63 3.6 SSE 24 43 13 23 - - 6.2
27/04:00pm 16.4 11.0 9.6 64 3.5 SSE 28 43 15 23 - - 6.2
27/03:30pm 16.1 12.7 11.1 72 2.7 SSE 20 39 11 21 - - 6.2
27/03:00pm 15.2 13.0 12.0 81 1.7 S 15 22 8 12 - - 6.2
27/02:30pm 14.7 11.6 11.5 81 1.7 S 19 30 10 16 - - 6.2
27/02:20pm 14.4 12.1 11.7 84 1.4 SSE 15 24 8 13 - - 6.2
27/02:00pm 13.8 10.3 10.8 82 1.6 S 20 33 11 18 - - 6.0
27/01:55pm 14.5 9.7 10.3 76 2.2 S 26 39 14 21 - - 4.6
27/01:31pm 15.1 12.5 11.9 81 1.7 S 17 30 9 16 - - 3.8
27/01:30pm 15.0 12.3 11.8 81 1.7 S 17 30 9 16 - - 3.8
27/01:02pm 14.8 10.2 11.0 78 2.0 SE 26 43 14 23 - - 2.8
27/01:00pm 15.7 12.7 12.5 81 1.8 SSE 20 22 11 12 - - 2.4
27/12:30pm 14.1 11.2 10.9 81 1.7 SSW 17 26 9 14 - - 2.4
27/12:29pm 14.2 11.2 10.8 80 1.8 SSW 17 26 9 14 - - 2.4
27/12:00pm 14.3 11.2 11.5 83 1.5 SSE 19 28 10 15 - - 1.4
27/11:47am 14.8 10.1 11.9 83 1.6 SSE 28 46 15 25 - - 0.8
27/11:45am 15.2 10.8 11.6 79 1.9 SSE 26 46 14 25 - - 0.6
27/11:43am 16.4 12.8 11.8 74 2.5 SSE 22 35 12 19 - - 0.4
27/11:32am 15.4 10.1 11.2 76 2.2 SSE 30 50 16 27 - - 0.4
27/11:30am 15.6 10.3 11.4 76 2.3 SSE 30 50 16 27 - - 0.2
27/11:25am 16.3 11.3 11.0 71 2.8 SSE 28 50 15 27 - - 0.2
27/11:00am 16.2 11.1 10.7 70 2.9 SSE 28 39 15 21 - - 0.2
27/10:46am 16.1 12.3 11.3 73 2.6 SSE 22 37 12 20 - - 0.2
27/10:30am 15.1 10.2 11.3 78 2.0 SSE 28 43 15 23 - - 0.2
27/10:25am 15.4 10.8 11.2 76 2.2 SSE 26 43 14 23 - - 0.2
27/10:00am 15.9 11.6 10.7 71 2.8 SSE 24 39 13 21 - - 0.2
27/09:30am 15.4 12.9 12.2 81 1.7 SSE 17 24 9 13 - - 0.2
27/09:20am 14.9 12.0 12.4 85 1.4 SSE 19 32 10 17 - - 0.2
27/09:00am 14.1 12.4 12.5 90 0.9 SSW 13 20 7 11 - - 38.8
27/08:52am 14.1 13.7 13.1 94 0.6 SSW 7 22 4 12 - - 37.4
27/08:30am 12.4 12.4 11.3 93 0.6 ESE 2 6 1 3 - - 37.4
27/08:29am 12.4 12.4 11.1 92 0.7 ESE 2 6 1 3 - - 37.4
27/08:00am 12.3 8.7 10.4 88 1.0 SE 20 33 11 18 - - 32.2
27/07:47am 13.3 10.9 11.4 88 1.0 SSE 15 22 8 12 - - 28.2
27/07:30am 13.7 11.3 11.4 86 1.2 S 15 26 8 14 - - 27.6
27/07:00am 13.8 10.7 11.5 86 1.2 S 19 28 10 15 - - 27.6
27/06:37am 13.4 11.1 11.6 89 1.0 S 15 24 8 13 - - 27.6
27/06:30am 13.5 10.8 11.7 89 1.0 SSE 17 26 9 14 - - 27.6
27/06:13am 13.4 11.4 11.6 89 1.0 S 13 28 7 15 - - 26.6
27/06:00am 12.9 11.2 11.3 90 0.8 S 11 17 6 9 - - 26.0
27/05:53am 12.8 10.7 11.2 90 0.8 S 13 19 7 10 - - 26.0
27/05:35am 13.0 9.8 11.1 88 1.0 SSE 19 28 10 15 - - 25.8
27/05:30am 13.1 9.6 10.8 86 1.2 SSE 20 30 11 16 - - 25.6
27/05:00am 13.6 10.3 11.5 87 1.1 S 20 35 11 19 - - 25.6
27/04:50am 13.3 12.8 12.0 92 0.7 SE 6 17 3 9 - - 25.6
27/04:30am 13.3 11.5 12.0 92 0.7 S 13 22 7 12 - - 25.2
27/04:20am 13.4 11.1 11.6 89 1.0 S 15 24 8 13 - - 21.6
27/04:04am 13.7 11.1 11.9 89 1.0 S 17 26 9 14 - - 21.4
27/04:00am 13.8 11.6 12.0 89 1.0 S 15 26 8 14 - - 21.4
27/03:30am 14.7 12.1 12.0 84 1.5 SSE 17 28 9 15 - - 19.8
27/03:00am 14.5 12.9 11.5 82 1.6 SSE 11 17 6 9 - - 19.8
27/02:32am 14.3 12.1 10.7 79 1.9 SE 13 19 7 10 - - 19.8
27/02:30am 14.3 11.7 10.7 79 1.9 SE 15 19 8 10 - - 19.8
27/02:00am 14.2 13.1 12.1 87 1.1 SSE 9 13 5 7 - - 18.8
27/01:47am 14.8 12.5 11.9 83 1.6 SE 15 19 8 10 - - 18.0
27/01:30am 14.8 12.1 11.6 81 1.7 SSE 17 24 9 13 - - 17.2
27/01:00am 12.6 12.8 11.8 95 0.4 SW 2 9 1 5 - - 17.2
27/12:30am 13.1 13.8 12.2 94 0.5 CALM 0 6 0 3 - - 17.2
27/12:10am 13.5 14.3 12.6 94 0.5 CALM 0 0 0 0 - - 17.2
27/12:00am 13.5 14.3 12.4 93 0.6 CALM 0 2 0 1 - - 17.2
 
Date/Time
EST
Tmp

°C
App
Tmp
°C
Dew
Point
°C
Rel
Hum
%
Delta-T

°C
Wind Press
QNH
hPa
Press
MSL
hPa
Rain
since
9 am
mm
Dir
 
Spd
km/h
Gust
km/h
Spd
kts
Gust
kts
26/11:30pm 13.8 10.7 12.2 90 0.9 SE 20 28 11 15 - - 14.0
26/11:00pm 14.3 12.2 12.5 89 1.0 SE 15 22 8 12 - - 11.8
26/10:41pm 14.5 11.4 12.2 86 1.2 ESE 20 28 11 15 - - 11.6
26/10:30pm 14.5 12.0 12.2 86 1.2 ESE 17 28 9 15 - - 11.4
26/10:00pm 14.4 12.4 12.8 90 0.9 SE 15 28 8 15 - - 11.4
26/09:50pm 14.2 11.8 12.8 91 0.8 SE 17 30 9 16 - - 11.4
26/09:30pm 14.4 12.0 12.8 90 0.9 SE 17 37 9 20 - - 11.4
26/09:27pm 14.7 13.0 12.4 86 1.3 SSE 13 28 7 15 - - 8.8
26/09:00pm 14.7 12.5 12.0 84 1.5 ESE 15 20 8 11 - - 7.8
26/08:30pm 14.1 13.4 12.0 87 1.1 SE 7 11 4 6 - - 7.8
26/08:23pm 14.0 12.8 11.7 86 1.2 ESE 9 13 5 7 - - 7.8
26/08:00pm 14.9 13.3 12.8 87 1.2 ESE 13 28 7 15 - - 7.8
26/07:55pm 14.0 14.0 12.4 90 0.9 SE 4 26 2 14 - - 7.6
26/07:36pm 14.3 13.8 12.5 89 1.0 E 7 11 4 6 - - 7.6
26/07:30pm 14.4 13.5 12.6 89 1.0 E 9 13 5 7 - - 7.6
26/07:16pm 14.5 13.6 12.5 88 1.1 E 9 13 5 7 - - 7.2
26/07:00pm 14.7 13.1 12.7 88 1.1 SE 13 19 7 10 - - 6.8
26/06:30pm 14.6 11.8 12.5 87 1.1 SE 19 28 10 15 - - 6.8
26/06:00pm 14.0 13.6 12.9 93 0.6 S 7 9 4 5 - - 6.6
26/05:38pm 13.9 13.0 12.6 92 0.7 SSE 9 13 5 7 - - 6.6
26/05:30pm 13.9 13.1 12.8 93 0.6 SSE 9 11 5 6 - - 6.6
26/05:15pm 13.9 12.3 12.8 93 0.6 S 13 20 7 11 - - 6.6
26/05:03pm 13.7 13.2 12.6 93 0.6 SSW 7 13 4 7 - - 6.4
26/05:00pm 13.7 13.4 12.6 93 0.6 SSW 6 9 3 5 - - 6.4
26/04:32pm 14.1 11.0 12.3 89 1.0 SSE 20 32 11 17 - - 4.0
26/04:30pm 14.3 11.2 12.3 88 1.1 S 20 32 11 17 - - 3.8
26/04:00pm 14.5 13.5 12.4 87 1.1 SSW 9 15 5 8 - - 3.8
26/03:30pm 14.5 14.1 12.9 90 0.9 S 7 11 4 6 - - 3.8
26/03:04pm 14.4 13.7 13.1 92 0.7 S 9 15 5 8 - - 3.8
26/03:00pm 14.4 13.3 13.1 92 0.7 S 11 17 6 9 - - 3.8
26/02:42pm 14.8 13.7 13.2 90 0.9 SSE 11 19 6 10 - - 3.2
26/02:30pm 14.9 13.3 12.8 87 1.2 SSE 13 20 7 11 - - 3.0
26/02:00pm 14.5 13.4 13.2 92 0.7 SSE 11 15 6 8 - - 3.0
26/01:30pm 14.4 13.7 13.1 92 0.7 S 9 15 5 8 - - 3.0
26/01:06pm 13.7 12.4 12.4 92 0.7 S 11 19 6 10 - - 3.0
26/01:00pm 13.7 12.4 12.4 92 0.7 S 11 20 6 11 - - 3.0
26/12:30pm 14.0 11.6 12.6 91 0.8 SSE 17 26 9 14 - - 2.4
26/12:05pm 14.5 13.2 12.4 87 1.1 S 11 17 6 9 - - 1.8
26/12:00pm 14.6 13.1 11.9 84 1.5 S 11 17 6 9 - - 1.6
26/11:30am 14.7 14.0 12.0 84 1.5 SSW 7 9 4 5 - - 1.6
26/11:00am 14.4 14.1 12.8 90 0.9 SSW 6 9 3 5 - - 1.6
26/10:33am 13.9 13.7 13.1 95 0.4 ESE 6 9 3 5 - - 1.6
26/10:30am 13.7 13.5 12.9 95 0.4 ESE 6 9 3 5 - - 1.4
26/10:18am 13.9 13.3 13.4 97 0.3 SE 9 11 5 6 - - 1.4
26/10:14am 13.7 13.1 13.4 98 0.2 ESE 9 11 5 6 - - 1.4
26/10:00am 13.6 13.5 13.3 98 0.2 SE 6 9 3 5 - - 1.4
26/09:30am 13.2 12.8 13.0 99 0.1 SE 7 9 4 5 - - 0.2
26/09:00am 12.6 12.2 12.4 99 0.1 NNE 6 11 3 6 - - 6.4
26/08:30am 12.3 11.8 12.1 99 0.1 NNE 6 6 3 3 - - 6.0
26/08:00am 11.8 11.5 11.6 99 0.1 NNW 4 9 2 5 - - 5.2
26/07:30am 11.5 11.9 11.3 99 0.1 CALM 0 6 0 3 - - 3.2
26/07:00am 11.3 11.3 11.1 99 0.1 NW 2 6 1 3 - - 2.8
26/06:38am 11.1 11.4 10.9 99 0.1 CALM 0 0 0 0 - - 2.0
26/06:32am 11.0 11.3 10.8 99 0.1 CALM 0 0 0 0 - - 2.0
26/06:30am 11.1 11.4 10.9 99 0.1 CALM 0 0 0 0 - - 2.0
26/06:08am 11.0 10.5 10.8 99 0.1 ENE 4 7 2 4 - - 1.8
26/06:07am 11.0 10.9 10.8 99 0.1 E 2 7 1 4 - - 1.6
26/06:00am 10.7 10.9 10.5 99 0.1 CALM 0 0 0 0 - - 1.6
26/05:30am 10.4 10.4 9.9 97 0.3 CALM 0 0 0 0 - - 1.6
26/05:25am 10.5 10.6 10.0 97 0.3 CALM 0 0 0 0 - - 1.6
26/05:00am 11.0 10.1 10.7 98 0.2 NNW 6 7 3 4 - - 1.6
26/04:30am 11.2 10.4 10.9 98 0.2 N 6 9 3 5 - - 1.6
26/04:00am 11.4 11.0 11.1 98 0.2 NW 4 6 2 3 - - 1.6
26/03:46am 11.3 11.6 11.0 98 0.2 CALM 0 0 0 0 - - 1.6
26/03:30am 11.2 11.5 10.9 98 0.2 CALM 0 0 0 0 - - 1.6
26/03:20am 11.2 11.5 10.9 98 0.2 CALM 0 0 0 0 - - 1.6
26/03:00am 11.2 11.1 10.9 98 0.2 NW 2 7 1 4 - - 1.4
26/02:30am 11.2 10.3 10.7 97 0.3 WNW 6 7 3 4 - - 1.4
26/02:00am 11.5 10.7 11.0 97 0.3 W 6 9 3 5 - - 1.4
26/01:30am 11.9 11.6 11.6 98 0.2 W 4 7 2 4 - - 1.4
26/01:00am 12.1 11.9 11.9 99 0.1 W 4 7 2 4 - - 1.2
26/12:58am 12.1 11.9 11.9 99 0.1 W 4 7 2 4 - - 1.2
26/12:37am 11.8 12.3 11.6 99 0.1 CALM 0 0 0 0 - - 1.2
26/12:30am 11.7 12.2 11.5 99 0.1 CALM 0 0 0 0 - - 1.2
26/12:14am 11.7 12.1 11.4 98 0.2 CALM 0 0 0 0 - - 1.2
26/12:00am 11.2 11.4 10.7 97 0.3 CALM 0 0 0 0 - - 1.2
 
Date/Time
EST
Tmp

°C
App
Tmp
°C
Dew
Point
°C
Rel
Hum
%
Delta-T

°C
Wind Press
QNH
hPa
Press
MSL
hPa
Rain
since
9 am
mm
Dir
 
Spd
km/h
Gust
km/h
Spd
kts
Gust
kts
25/11:49pm 11.2 11.4 10.6 96 0.3 CALM 0 0 0 0 - - 1.2
25/11:46pm 11.1 11.2 10.3 95 0.4 CALM 0 0 0 0 - - 1.2
25/11:30pm 11.5 11.7 10.7 95 0.4 CALM 0 0 0 0 - - 1.2
25/11:22pm 11.9 12.3 11.1 95 0.4 CALM 0 0 0 0 - - 1.2
25/11:00pm 12.6 13.2 11.8 95 0.4 CALM 0 0 0 0 - - 1.2
25/10:30pm 12.6 12.7 11.5 93 0.6 NW 2 7 1 4 - - 1.2
25/10:00pm 13.2 12.7 11.9 92 0.7 SE 6 9 3 5 - - 1.0
25/09:45pm 13.4 11.9 12.0 91 0.8 ESE 11 17 6 9 - - 0.8
25/09:30pm 13.3 12.4 11.2 87 1.1 E 7 11 4 6 - - 0.8

Latest Capital City Observations: Canberra | Sydney | Melbourne | Brisbane | Adelaide | Perth | Hobart | Darwin

Other Formats:

Comma delimited format used in spreadsheet applications
http://www.bom.gov.au/fwo/IDN60901/IDN60901.94766.axf

JavaScript Object Notation format (JSON) in row-major order
http://www.bom.gov.au/fwo/IDN60901/IDN60901.94766.json